createdAt,value
2023-03-05T00:00:58.860Z,9.681097
2023-03-05T00:01:58.843Z,9.680826
2023-03-05T00:02:58.872Z,9.680910
2023-03-05T00:03:58.929Z,9.680968
2023-03-05T00:04:58.832Z,9.680625
2023-03-05T00:05:58.858Z,9.680660
2023-03-05T00:06:58.820Z,9.680555
2023-03-05T00:07:58.813Z,9.680171
2023-03-05T00:08:58.839Z,9.680545
2023-03-05T00:09:58.799Z,9.680545
2023-03-05T00:10:58.781Z,9.680860
2023-03-05T00:11:58.785Z,9.681052
2023-03-05T00:12:58.774Z,9.681077
2023-03-05T00:14:05.800Z,9.681198
2023-03-05T00:14:58.774Z,9.680536
2023-03-05T00:15:58.778Z,9.680972
2023-03-05T00:16:58.773Z,9.680653
2023-03-05T00:17:58.744Z,9.680915
2023-03-05T00:18:58.737Z,9.680508
2023-03-05T00:19:59.993Z,9.680861
2023-03-05T00:20:58.732Z,9.680930
2023-03-05T00:21:58.709Z,9.680733
2023-03-05T00:22:58.729Z,9.680855
2023-03-05T00:23:58.701Z,9.680944
2023-03-05T00:24:58.693Z,9.680722
2023-03-05T00:25:58.686Z,9.680360
2023-03-05T00:26:58.696Z,9.680907
2023-03-05T00:27:58.672Z,9.681119
2023-03-05T00:28:58.801Z,9.681189
2023-03-05T00:29:58.681Z,9.681038
2023-03-05T00:30:58.685Z,9.681112
2023-03-05T00:31:58.745Z,9.681005
2023-03-05T00:32:58.648Z,9.680906
2023-03-05T00:33:58.644Z,9.680949
2023-03-05T00:34:58.649Z,9.680811
2023-03-05T00:35:58.662Z,9.680803
2023-03-05T00:36:58.626Z,9.681196
2023-03-05T00:37:58.619Z,9.680922
2023-03-05T00:38:58.622Z,9.680851
2023-03-05T00:39:58.708Z,9.680984
2023-03-05T00:40:58.621Z,9.680928
2023-03-05T00:41:58.592Z,9.680959
2023-03-05T00:42:58.587Z,9.680764
2023-03-05T00:43:58.577Z,9.680966
2023-03-05T00:44:58.563Z,9.680918
2023-03-05T00:45:58.550Z,9.680756
2023-03-05T00:46:58.578Z,9.680806
2023-03-05T00:47:58.607Z,9.680728
2023-03-05T00:48:58.540Z,9.680763
2023-03-05T00:49:58.538Z,9.681009
2023-03-05T00:50:58.532Z,9.680315
2023-03-05T00:51:58.530Z,9.680315
2023-03-05T00:52:58.540Z,9.680315
2023-03-05T00:53:58.518Z,9.680315
2023-03-05T00:54:58.505Z,9.680315
2023-03-05T00:55:58.502Z,9.680315
2023-03-05T00:56:58.497Z,9.680315
2023-03-05T00:57:58.505Z,9.680315
2023-03-05T00:58:58.479Z,9.680315
2023-03-05T00:59:58.482Z,9.680315
2023-03-05T01:00:58.486Z,9.680315
2023-03-05T01:01:58.495Z,9.680315
2023-03-05T01:02:58.462Z,9.680315
2023-03-05T01:03:58.502Z,9.680315
2023-03-05T01:04:58.466Z,9.680315
2023-03-05T01:05:58.435Z,9.680315
2023-03-05T01:06:58.443Z,9.680315
2023-03-05T01:07:58.417Z,9.680315
2023-03-05T01:08:58.415Z,9.680315
2023-03-05T01:09:58.457Z,9.680315
2023-03-05T01:10:58.464Z,9.680315
2023-03-05T01:11:58.398Z,9.680315
2023-03-05T01:12:58.387Z,9.680315
2023-03-05T01:13:58.376Z,9.680315
2023-03-05T01:14:58.369Z,9.680315
2023-03-05T01:15:58.448Z,9.680315
2023-03-05T01:16:58.470Z,9.680315
2023-03-05T01:17:58.360Z,9.680315
2023-03-05T01:18:58.364Z,9.680315
2023-03-05T01:19:58.355Z,9.680315
2023-03-05T01:20:58.329Z,9.680315
2023-03-05T01:21:58.345Z,9.680315
2023-03-05T01:22:58.314Z,9.680315
2023-03-05T01:23:58.307Z,9.680315
2023-03-05T01:24:58.338Z,9.680315
2023-03-05T01:25:58.315Z,9.680315
2023-03-05T01:26:58.289Z,9.680315
2023-03-05T01:27:58.309Z,9.680315
2023-03-05T01:28:58.288Z,9.680315
2023-03-05T01:29:58.280Z,9.680315
2023-03-05T01:30:58.294Z,9.680315
2023-03-05T01:31:58.301Z,9.680315
2023-03-05T01:32:58.277Z,9.680315
2023-03-05T01:33:58.249Z,9.680315
2023-03-05T01:34:58.279Z,9.680315
2023-03-05T01:35:58.291Z,9.680315
2023-03-05T01:36:58.355Z,9.680315
2023-03-05T01:37:58.234Z,9.680315
2023-03-05T01:38:58.234Z,9.680315
2023-03-05T01:39:58.219Z,9.680315
2023-03-05T01:40:58.208Z,9.680315
2023-03-05T01:41:58.224Z,9.680315
2023-03-05T01:42:58.196Z,9.680315
2023-03-05T01:43:58.217Z,9.680315
2023-03-05T01:44:58.178Z,9.680315
2023-03-05T01:45:58.195Z,9.680747
2023-03-05T01:46:58.169Z,9.681057
2023-03-05T01:47:58.279Z,9.681335
2023-03-05T01:48:58.297Z,9.681298
2023-03-05T01:49:58.146Z,9.681330
2023-03-05T01:50:58.138Z,9.681322
2023-03-05T01:51:58.144Z,9.681377
2023-03-05T01:52:58.156Z,9.681226
2023-03-05T01:53:58.184Z,9.681334
2023-03-05T01:54:58.120Z,9.681144
2023-03-05T01:55:58.105Z,9.681202
2023-03-05T01:56:58.109Z,9.681248
2023-03-05T01:57:58.109Z,9.681038
2023-03-05T01:58:58.089Z,9.681268
2023-03-05T01:59:58.609Z,9.681844
2023-03-05T02:00:58.103Z,9.681573
2023-03-05T02:01:58.076Z,9.681206
2023-03-05T02:02:58.073Z,9.681099
2023-03-05T02:03:58.079Z,9.681096
2023-03-05T02:04:58.078Z,9.681321
2023-03-05T02:05:58.056Z,9.680814
2023-03-05T02:06:58.036Z,9.681196
2023-03-05T02:07:58.038Z,9.681479
2023-03-05T02:08:58.022Z,9.681192
2023-03-05T02:09:58.015Z,9.681184
2023-03-05T02:10:58.021Z,9.681407
2023-03-05T02:11:58.001Z,9.681671
2023-03-05T02:12:58.018Z,9.681726
2023-03-05T02:13:57.982Z,9.681211
2023-03-05T02:14:58.012Z,9.681400
2023-03-05T02:15:57.977Z,9.681292
2023-03-05T02:16:58.080Z,9.680789
2023-03-05T02:17:57.962Z,9.680747
2023-03-05T02:18:57.961Z,9.680864
2023-03-05T02:19:57.975Z,9.680859
2023-03-05T02:20:58.021Z,9.681082
2023-03-05T02:21:57.943Z,9.680820
2023-03-05T02:22:57.933Z,9.680765
2023-03-05T02:23:57.931Z,9.680558
2023-03-05T02:24:57.918Z,9.680400
2023-03-05T02:25:57.940Z,9.680492
2023-03-05T02:26:57.929Z,9.680543
2023-03-05T02:27:57.903Z,9.680401
2023-03-05T02:28:57.907Z,9.680702
2023-03-05T02:29:57.896Z,9.680773
2023-03-05T02:30:57.883Z,9.681087
2023-03-05T02:31:58.120Z,9.681051
2023-03-05T02:32:57.890Z,9.681080
2023-03-05T02:33:57.862Z,9.681472
2023-03-05T02:34:57.873Z,9.681671
2023-03-05T02:35:57.880Z,9.681083
2023-03-05T02:36:57.852Z,9.681537
2023-03-05T02:37:57.833Z,9.680757
2023-03-05T02:38:57.864Z,9.680695
2023-03-05T02:39:57.853Z,9.681325
2023-03-05T02:40:57.827Z,9.680700
2023-03-05T02:41:57.821Z,9.680580
2023-03-05T02:42:57.813Z,9.680762
2023-03-05T02:43:57.805Z,9.681106
2023-03-05T02:44:57.799Z,9.681068
2023-03-05T02:45:58.046Z,9.680982
2023-03-05T02:46:57.780Z,9.680813
2023-03-05T02:47:57.778Z,9.680784
2023-03-05T02:48:57.793Z,9.681169
2023-03-05T02:49:57.771Z,9.681402
2023-03-05T02:50:57.789Z,9.681352
2023-03-05T02:51:57.857Z,9.681428
2023-03-05T02:52:57.748Z,9.681047
2023-03-05T02:53:57.755Z,9.680887
2023-03-05T02:54:57.730Z,9.681314
2023-03-05T02:55:57.748Z,9.681520
2023-03-05T02:56:57.745Z,9.681541
2023-03-05T02:57:57.703Z,9.681091
2023-03-05T02:58:57.701Z,9.681091
2023-03-05T02:59:57.747Z,9.681091
2023-03-05T03:00:57.700Z,9.681091
2023-03-05T03:01:57.680Z,9.679934
2023-03-05T03:02:57.757Z,9.680901
2023-03-05T03:03:57.688Z,9.680940
2023-03-05T03:04:57.662Z,9.680974
2023-03-05T03:05:57.656Z,9.680535
2023-03-05T03:06:57.654Z,9.681061
2023-03-05T03:07:57.643Z,9.681036
2023-03-05T03:08:57.655Z,9.681386
2023-03-05T03:09:57.635Z,9.681203
2023-03-05T03:10:57.628Z,9.681147
2023-03-05T03:11:57.624Z,9.680918
2023-03-05T03:12:57.621Z,9.681502
2023-03-05T03:13:57.613Z,9.681138
2023-03-05T03:14:57.625Z,9.680958
2023-03-05T03:15:57.601Z,9.680678
2023-03-05T03:16:57.649Z,9.681147
2023-03-05T03:17:57.594Z,9.681218
2023-03-05T03:18:57.597Z,9.681241
2023-03-05T03:19:57.593Z,9.681306
2023-03-05T03:20:57.596Z,9.681267
2023-03-05T03:21:57.584Z,9.681086
2023-03-05T03:22:57.560Z,9.681226
2023-03-05T03:23:57.553Z,9.680856
2023-03-05T03:24:57.569Z,9.680815
2023-03-05T03:25:57.539Z,9.681099
2023-03-05T03:26:57.553Z,9.681046
2023-03-05T03:27:57.532Z,9.681288
2023-03-05T03:28:57.521Z,9.681219
2023-03-05T03:29:57.520Z,9.681083
2023-03-05T03:30:57.632Z,9.680961
2023-03-05T03:31:57.564Z,9.680874
2023-03-05T03:32:57.505Z,9.680855
2023-03-05T03:33:57.499Z,9.680828
2023-03-05T03:34:57.505Z,9.680947
2023-03-05T03:35:57.523Z,9.680847
2023-03-05T03:36:57.512Z,9.681000
2023-03-05T03:37:57.479Z,9.681428
2023-03-05T03:38:57.486Z,9.681391
2023-03-05T03:39:57.465Z,9.681724
2023-03-05T03:40:57.458Z,9.681822
2023-03-05T03:41:57.461Z,9.681394
2023-03-05T03:42:57.485Z,9.681055
2023-03-05T03:43:57.456Z,9.680922
2023-03-05T03:44:57.434Z,9.681788
2023-03-05T03:45:57.457Z,9.681452
2023-03-05T03:46:57.442Z,9.681359
2023-03-05T03:47:57.419Z,9.681612
2023-03-05T03:48:57.448Z,9.681457
2023-03-05T03:49:57.405Z,9.681082
2023-03-05T03:50:57.397Z,9.680903
2023-03-05T03:51:57.511Z,9.680926
2023-03-05T03:52:57.390Z,9.680533
2023-03-05T03:53:57.401Z,9.680811
2023-03-05T03:54:57.379Z,9.681493
2023-03-05T03:55:57.367Z,9.681205
2023-03-05T03:56:57.426Z,9.681164
2023-03-05T03:57:57.393Z,9.681251
2023-03-05T03:58:57.382Z,9.680984
2023-03-05T03:59:57.379Z,9.681198
2023-03-05T04:00:57.343Z,9.681396
2023-03-05T04:01:57.327Z,9.680973
2023-03-05T04:02:57.339Z,9.681506
2023-03-05T04:03:57.363Z,9.681240
2023-03-05T04:04:57.315Z,9.680938
2023-03-05T04:05:57.309Z,9.680816
2023-03-05T04:06:57.307Z,9.680613
2023-03-05T04:07:57.298Z,9.680700
2023-03-05T04:08:57.321Z,9.680865
2023-03-05T04:09:57.286Z,9.681069
2023-03-05T04:10:57.284Z,9.680938
2023-03-05T04:11:57.277Z,9.680871
2023-03-05T04:12:57.266Z,9.680907
2023-03-05T04:13:57.275Z,9.680721
2023-03-05T04:14:57.263Z,9.680977
2023-03-05T04:15:57.293Z,9.680614
2023-03-05T04:16:57.244Z,9.680730
2023-03-05T04:17:57.243Z,9.680599
2023-03-05T04:18:57.238Z,9.680740
2023-03-05T04:19:57.225Z,9.680657
2023-03-05T04:20:57.236Z,9.680752
2023-03-05T04:21:57.221Z,9.680789
2023-03-05T04:22:57.209Z,9.681259
2023-03-05T04:23:57.196Z,9.681361
2023-03-05T04:24:57.213Z,9.681361
2023-03-05T04:25:57.199Z,9.681528
2023-03-05T04:26:57.178Z,9.681099
2023-03-05T04:27:57.174Z,9.680698
2023-03-05T04:28:57.187Z,9.680719
2023-03-05T04:29:57.154Z,9.680699
2023-03-05T04:30:57.176Z,9.680895
2023-03-05T04:31:57.179Z,9.681326
2023-03-05T04:32:57.149Z,9.681354
2023-03-05T04:33:57.139Z,9.681600
2023-03-05T04:34:57.157Z,9.681257
2023-03-05T04:35:57.199Z,9.681112
2023-03-05T04:36:57.130Z,9.680790
2023-03-05T04:37:57.113Z,9.681158
2023-03-05T04:38:57.116Z,9.681607
2023-03-05T04:39:57.098Z,9.681509
2023-03-05T04:40:57.138Z,9.680939
2023-03-05T04:41:57.092Z,9.680981
2023-03-05T04:42:57.083Z,9.681063
2023-03-05T04:43:57.068Z,9.680968
2023-03-05T04:44:57.063Z,9.680130
2023-03-05T04:45:57.063Z,9.680367
2023-03-05T04:46:57.077Z,9.680845
2023-03-05T04:47:57.040Z,9.681211
2023-03-05T04:48:57.039Z,9.681334
2023-03-05T04:49:57.031Z,9.681639
2023-03-05T04:50:57.028Z,9.681235
2023-03-05T04:51:57.041Z,9.681309
2023-03-05T04:52:57.023Z,9.681192
2023-03-05T04:53:57.005Z,9.681350
2023-03-05T04:54:57.003Z,9.681177
2023-03-05T04:55:56.997Z,9.680896
2023-03-05T04:56:56.991Z,9.680514
2023-03-05T04:57:57.000Z,9.680748
2023-03-05T04:58:56.985Z,9.680932
2023-03-05T04:59:56.989Z,9.680687
2023-03-05T05:00:56.967Z,9.680550
2023-03-05T05:01:56.972Z,9.680370
2023-03-05T05:02:57.043Z,9.680678
2023-03-05T05:03:56.938Z,9.680720
2023-03-05T05:04:56.946Z,9.680479
2023-03-05T05:05:56.947Z,9.680404
2023-03-05T05:06:56.923Z,9.680200
2023-03-05T05:07:56.927Z,9.679986
2023-03-05T05:08:56.911Z,9.680635
2023-03-05T05:09:56.926Z,9.680209
2023-03-05T05:10:56.901Z,9.680228
2023-03-05T05:11:56.889Z,9.680552
2023-03-05T05:12:56.889Z,9.680552
2023-03-05T05:13:56.878Z,9.680552
2023-03-05T05:14:56.866Z,9.680552
2023-03-05T05:15:56.897Z,9.680552
2023-03-05T05:16:56.862Z,9.680552
2023-03-05T05:17:56.855Z,9.680552
2023-03-05T05:18:56.842Z,9.680552
2023-03-05T05:19:56.846Z,9.680552
2023-03-05T05:20:56.851Z,9.680552
2023-03-05T05:21:56.825Z,9.680552
2023-03-05T05:22:56.836Z,9.680552
2023-03-05T05:23:56.809Z,9.680552
2023-03-05T05:24:56.803Z,9.680552
2023-03-05T05:25:56.816Z,9.680552
2023-03-05T05:26:56.787Z,9.680552
2023-03-05T05:27:56.784Z,9.680552
2023-03-05T05:28:56.777Z,9.680552
2023-03-05T05:29:56.764Z,9.680552
2023-03-05T05:30:56.772Z,9.680552
2023-03-05T05:31:56.768Z,9.680552
2023-03-05T05:32:56.748Z,9.680552
2023-03-05T05:33:56.741Z,9.680552
2023-03-05T05:34:56.745Z,9.680552
2023-03-05T05:35:56.772Z,9.680552
2023-03-05T05:36:56.741Z,9.680552
2023-03-05T05:37:56.740Z,9.680552
2023-03-05T05:38:56.721Z,9.680552
2023-03-05T05:39:56.718Z,9.680552
2023-03-05T05:40:56.709Z,9.680552
2023-03-05T05:41:56.710Z,9.680552
2023-03-05T05:42:56.694Z,9.680552
2023-03-05T05:43:56.701Z,9.680552
2023-03-05T05:44:56.676Z,9.680552
2023-03-05T05:45:56.783Z,9.680552
2023-03-05T05:46:56.672Z,9.680552
2023-03-05T05:47:56.660Z,9.680552
2023-03-05T05:48:56.685Z,9.680552
2023-03-05T05:49:56.654Z,9.680552
2023-03-05T05:50:56.649Z,9.680552
2023-03-05T05:51:56.657Z,9.680552
2023-03-05T05:52:56.633Z,9.680552
2023-03-05T05:53:56.626Z,9.680552
2023-03-05T05:54:56.622Z,9.680552
2023-03-05T05:55:56.618Z,9.680552
2023-03-05T05:56:56.629Z,9.680552
2023-03-05T05:57:56.608Z,9.680552
2023-03-05T05:58:56.603Z,9.680552
2023-03-05T05:59:56.599Z,9.680552
2023-03-05T06:00:56.593Z,9.680552
2023-03-05T06:01:56.642Z,9.680552
2023-03-05T06:02:56.614Z,9.680552
2023-03-05T06:03:56.564Z,9.680552
2023-03-05T06:04:58.189Z,9.680552
2023-03-05T06:05:56.570Z,9.680552
2023-03-05T06:06:56.555Z,9.680552
2023-03-05T06:07:56.544Z,9.680552
2023-03-05T06:08:56.537Z,9.680552
2023-03-05T06:09:56.529Z,9.680552
2023-03-05T06:10:56.545Z,9.680552
2023-03-05T06:11:56.521Z,9.680552
2023-03-05T06:12:56.514Z,9.680552
2023-03-05T06:13:56.558Z,9.680552
2023-03-05T06:15:03.521Z,9.680552
2023-03-05T06:15:56.506Z,9.680552
2023-03-05T06:16:56.570Z,9.680552
2023-03-05T06:17:56.481Z,9.680552
2023-03-05T06:18:56.498Z,9.680552
2023-03-05T06:19:56.474Z,9.680552
2023-03-05T06:20:56.467Z,9.680552
2023-03-05T06:21:56.457Z,9.680552
2023-03-05T06:22:56.457Z,9.680552
2023-03-05T06:23:56.445Z,9.680552
2023-03-05T06:24:56.477Z,9.680552
2023-03-05T06:25:56.433Z,9.680552
2023-03-05T06:26:56.439Z,9.680552
2023-03-05T06:27:56.422Z,9.680552
2023-03-05T06:28:56.420Z,9.680552
2023-03-05T06:29:56.405Z,9.680552
2023-03-05T06:30:56.450Z,9.680552
2023-03-05T06:31:56.401Z,9.680552
2023-03-05T06:32:56.382Z,9.680552
2023-03-05T06:33:56.404Z,9.680552
2023-03-05T06:34:56.388Z,9.680552
2023-03-05T06:35:56.394Z,9.680552
2023-03-05T06:36:56.369Z,9.680552
2023-03-05T06:37:56.353Z,9.680552
2023-03-05T06:38:56.371Z,9.680552
2023-03-05T06:39:56.357Z,9.680552
2023-03-05T06:40:56.341Z,9.680552
2023-03-05T06:41:56.347Z,9.680552
2023-03-05T06:42:56.327Z,9.680552
2023-03-05T06:43:56.342Z,9.680552
2023-03-05T06:44:56.311Z,9.680552
2023-03-05T06:45:56.345Z,9.680552
2023-03-05T06:46:56.301Z,9.680552
2023-03-05T06:47:56.292Z,9.680552
2023-03-05T06:48:56.294Z,9.680552
2023-03-05T06:49:56.303Z,9.680552
2023-03-05T06:50:56.275Z,9.680552
2023-03-05T06:51:56.284Z,9.680552
2023-03-05T06:52:56.272Z,9.680552
2023-03-05T06:53:56.257Z,9.680552
2023-03-05T06:54:56.249Z,9.680552
2023-03-05T06:55:56.239Z,9.680552
2023-03-05T06:56:56.258Z,9.680552
2023-03-05T06:57:56.230Z,9.680552
2023-03-05T06:58:56.223Z,9.680552
2023-03-05T06:59:56.226Z,9.680552
2023-03-05T07:00:56.295Z,9.680552
2023-03-05T07:01:56.204Z,9.680552
2023-03-05T07:02:56.216Z,9.680552
2023-03-05T07:03:56.193Z,9.680552
2023-03-05T07:04:56.200Z,9.680552
2023-03-05T07:05:56.179Z,9.680552
2023-03-05T07:06:56.184Z,9.680552
2023-03-05T07:07:56.191Z,9.680552
2023-03-05T07:08:56.161Z,9.680552
2023-03-05T07:09:56.152Z,9.680552
2023-03-05T07:10:56.142Z,9.680552
2023-03-05T07:11:56.142Z,9.680552
2023-03-05T07:12:56.185Z,9.680552
2023-03-05T07:13:56.131Z,9.680552
2023-03-05T07:14:56.125Z,9.680552
2023-03-05T07:15:56.204Z,9.680552
2023-03-05T07:16:56.120Z,9.680552
2023-03-05T07:17:56.130Z,9.680552
2023-03-05T07:18:56.113Z,9.680552
2023-03-05T07:19:56.100Z,9.680552
2023-03-05T07:20:56.088Z,9.680552
2023-03-05T07:21:56.081Z,9.680552
2023-03-05T07:22:56.106Z,9.680552
2023-03-05T07:23:56.090Z,9.680552
2023-03-05T07:24:56.084Z,9.680552
2023-03-05T07:25:56.058Z,9.680552
2023-03-05T07:26:56.056Z,9.680552
2023-03-05T07:27:56.066Z,9.680552
2023-03-05T07:28:56.043Z,9.680552
2023-03-05T07:29:56.051Z,9.680552
2023-03-05T07:30:56.118Z,9.680552
2023-03-05T07:31:56.028Z,9.680552
2023-03-05T07:32:56.027Z,9.680552
2023-03-05T07:33:56.033Z,9.680552
2023-03-05T07:34:56.009Z,9.680552
2023-03-05T07:35:56.051Z,9.680552
2023-03-05T07:36:55.998Z,9.680552
2023-03-05T07:37:55.993Z,9.680552
2023-03-05T07:38:56.012Z,9.680552
2023-03-05T07:39:55.971Z,9.681324
2023-03-05T07:40:55.993Z,9.681281
2023-03-05T07:41:55.960Z,9.681044
2023-03-05T07:42:55.981Z,9.681086
2023-03-05T07:43:55.950Z,9.681142
2023-03-05T07:44:55.965Z,9.681120
2023-03-05T07:45:55.962Z,9.681180
2023-03-05T07:46:55.944Z,9.681075
2023-03-05T07:47:55.928Z,9.681291
2023-03-05T07:48:55.937Z,9.680838
2023-03-05T07:49:55.930Z,9.680760
2023-03-05T07:50:55.891Z,9.681512
2023-03-05T07:51:55.894Z,9.681370
2023-03-05T07:52:55.915Z,9.681261
2023-03-05T07:53:55.886Z,9.681531
2023-03-05T07:54:55.879Z,9.681248
2023-03-05T07:55:55.880Z,9.680981
2023-03-05T07:56:55.894Z,9.681209
2023-03-05T07:57:55.852Z,9.681260
2023-03-05T07:58:55.857Z,9.680998
2023-03-05T07:59:55.859Z,9.680982
2023-03-05T08:00:55.839Z,9.681083
2023-03-05T08:01:55.843Z,9.680569
2023-03-05T08:02:55.824Z,9.680642
2023-03-05T08:03:55.833Z,9.680379
2023-03-05T08:04:55.813Z,9.680340
2023-03-05T08:05:55.805Z,9.680784
2023-03-05T08:06:55.800Z,9.680938
2023-03-05T08:07:55.800Z,9.681046
2023-03-05T08:08:55.832Z,9.680730
2023-03-05T08:09:55.808Z,9.680857
2023-03-05T08:10:55.797Z,9.680785
2023-03-05T08:11:55.767Z,9.681221
2023-03-05T08:12:55.767Z,9.681259
2023-03-05T08:13:55.757Z,9.681173
2023-03-05T08:14:55.771Z,9.681258
2023-03-05T08:15:55.790Z,9.681141
2023-03-05T08:16:55.749Z,9.681309
2023-03-05T08:17:55.741Z,9.680957
2023-03-05T08:18:55.741Z,9.681025
2023-03-05T08:19:55.754Z,9.680862
2023-03-05T08:20:55.740Z,9.680737
2023-03-05T08:21:56.497Z,9.681035
2023-03-05T08:22:55.704Z,9.681113
2023-03-05T08:23:55.696Z,9.681096
2023-03-05T08:24:55.707Z,9.681074
2023-03-05T08:25:55.692Z,9.681014
2023-03-05T08:26:55.693Z,9.681154
2023-03-05T08:27:55.691Z,9.681124
2023-03-05T08:28:55.664Z,9.681059
2023-03-05T08:29:55.654Z,9.680934
2023-03-05T08:30:55.679Z,9.680787
2023-03-05T08:31:55.668Z,9.680510
2023-03-05T08:32:55.641Z,9.681020
2023-03-05T08:33:55.620Z,9.681024
2023-03-05T08:34:55.621Z,9.680960
2023-03-05T08:35:55.730Z,9.680437
2023-03-05T08:36:55.608Z,9.680743
2023-03-05T08:37:55.617Z,9.681046
2023-03-05T08:38:55.619Z,9.680837
2023-03-05T08:39:55.588Z,9.680646
2023-03-05T08:40:55.583Z,9.680450
2023-03-05T08:41:55.638Z,9.680352
2023-03-05T08:42:55.589Z,9.680925
2023-03-05T08:43:55.564Z,9.680919
2023-03-05T08:44:55.553Z,9.681060
2023-03-05T08:45:55.568Z,9.680842
2023-03-05T08:46:55.571Z,9.680803
2023-03-05T08:47:55.534Z,9.680900
2023-03-05T08:48:55.556Z,9.680921
2023-03-05T08:49:55.575Z,9.680682
2023-03-05T08:50:55.511Z,9.680951
2023-03-05T08:51:55.509Z,9.680519
2023-03-05T08:52:55.511Z,9.680764
2023-03-05T08:53:55.492Z,9.680198
2023-03-05T08:54:55.516Z,9.680658
2023-03-05T08:55:55.504Z,9.681061
2023-03-05T08:56:55.484Z,9.680898
2023-03-05T08:57:55.473Z,9.681120
2023-03-05T08:58:55.461Z,9.681272
2023-03-05T08:59:55.468Z,9.681370
2023-03-05T09:00:55.464Z,9.680956
2023-03-05T09:01:55.501Z,9.680979
2023-03-05T09:02:55.531Z,9.680912
2023-03-05T09:03:55.448Z,9.680977
2023-03-05T09:04:55.445Z,9.680801
2023-03-05T09:05:55.412Z,9.681058
2023-03-05T09:06:55.417Z,9.680988
2023-03-05T09:07:55.399Z,9.681366
2023-03-05T09:08:55.400Z,9.681212
2023-03-05T09:09:55.387Z,9.681262
2023-03-05T09:10:55.402Z,9.681179
2023-03-05T09:11:55.376Z,9.680787
2023-03-05T09:12:55.386Z,9.680912
2023-03-05T09:13:55.363Z,9.681038
2023-03-05T09:14:55.378Z,9.680912
2023-03-05T09:15:55.384Z,9.680810
2023-03-05T09:16:55.379Z,9.680660
2023-03-05T09:17:55.347Z,9.680636
2023-03-05T09:18:55.341Z,9.680828
2023-03-05T09:19:55.331Z,9.680884
2023-03-05T09:20:55.346Z,9.680984
2023-03-05T09:21:56.964Z,9.680709
2023-03-05T09:22:55.327Z,9.680610
2023-03-05T09:23:55.310Z,9.680878
2023-03-05T09:24:55.311Z,9.680849
2023-03-05T09:25:55.316Z,9.680839
2023-03-05T09:26:55.298Z,9.680797
2023-03-05T09:27:55.288Z,9.680877
2023-03-05T09:28:55.276Z,9.680886
2023-03-05T09:29:55.294Z,9.680955
2023-03-05T09:30:55.292Z,9.680799
2023-03-05T09:31:55.332Z,9.681132
2023-03-05T09:32:55.274Z,9.680782
2023-03-05T09:33:55.264Z,9.681059
2023-03-05T09:34:55.259Z,9.681255
2023-03-05T09:35:55.291Z,9.681062
2023-03-05T09:36:55.229Z,9.680851
2023-03-05T09:37:55.218Z,9.680806
2023-03-05T09:38:55.221Z,9.680966
2023-03-05T09:39:55.223Z,9.681058
2023-03-05T09:40:55.225Z,9.680880
2023-03-05T09:41:55.235Z,9.680728
2023-03-05T09:42:55.201Z,9.680792
2023-03-05T09:43:55.191Z,9.680879
2023-03-05T09:44:55.235Z,9.680963
2023-03-05T09:45:55.221Z,9.680965
2023-03-05T09:46:55.182Z,9.681041
2023-03-05T09:47:55.161Z,9.680885
2023-03-05T09:48:55.166Z,9.681082
2023-03-05T09:49:55.159Z,9.680949
2023-03-05T09:50:55.184Z,9.680530
2023-03-05T09:51:55.150Z,9.680998
2023-03-05T09:52:55.132Z,9.680952
2023-03-05T09:53:55.143Z,9.680877
2023-03-05T09:54:55.127Z,9.680940
2023-03-05T09:55:55.136Z,9.681094
2023-03-05T09:56:55.115Z,9.681249
2023-03-05T09:57:55.145Z,9.681338
2023-03-05T09:58:56.226Z,9.681284
2023-03-05T09:59:55.114Z,9.681167
2023-03-05T10:00:55.084Z,9.681569
2023-03-05T10:01:55.091Z,9.681344
2023-03-05T10:02:55.092Z,9.680657
2023-03-05T10:03:55.099Z,9.680737
2023-03-05T10:04:55.078Z,9.680904
2023-03-05T10:05:55.065Z,9.681227
2023-03-05T10:06:55.061Z,9.681441
2023-03-05T10:07:55.063Z,9.681349
2023-03-05T10:08:55.046Z,9.681350
2023-03-05T10:09:55.047Z,9.681160
2023-03-05T10:10:55.030Z,9.681160
2023-03-05T10:11:55.061Z,9.681065
2023-03-05T10:12:55.013Z,9.681334
2023-03-05T10:13:55.027Z,9.680782
2023-03-05T10:14:55.014Z,9.680520
2023-03-05T10:15:54.996Z,9.680885
2023-03-05T10:16:55.042Z,9.680891
2023-03-05T10:17:54.999Z,9.681211
2023-03-05T10:18:54.980Z,9.681013
2023-03-05T10:19:54.974Z,9.680877
2023-03-05T10:20:54.959Z,9.681078
2023-03-05T10:21:54.962Z,9.681089
2023-03-05T10:22:54.945Z,9.681152
2023-03-05T10:23:54.937Z,9.681093
2023-03-05T10:24:54.959Z,9.681063
2023-03-05T10:25:54.967Z,9.681204
2023-03-05T10:26:54.983Z,9.681162
2023-03-05T10:27:54.912Z,9.681072
2023-03-05T10:28:54.907Z,9.681132
2023-03-05T10:29:54.917Z,9.681004
2023-03-05T10:30:54.926Z,9.681026
2023-03-05T10:31:54.917Z,9.680906
2023-03-05T10:32:54.882Z,9.681108
2023-03-05T10:33:54.894Z,9.681064
2023-03-05T10:34:54.879Z,9.681053
2023-03-05T10:35:54.971Z,9.680690
2023-03-05T10:36:56.688Z,9.680685
2023-03-05T10:37:54.842Z,9.681083
2023-03-05T10:38:54.849Z,9.681412
2023-03-05T10:39:54.842Z,9.681503
2023-03-05T10:40:54.829Z,9.681389
2023-03-05T10:41:54.835Z,9.681108
2023-03-05T10:42:54.835Z,9.681099
2023-03-05T10:43:54.861Z,9.681247
2023-03-05T10:44:54.836Z,9.681006
2023-03-05T10:45:54.836Z,9.680928
2023-03-05T10:46:55.995Z,9.680690
2023-03-05T10:47:54.789Z,9.681100
2023-03-05T10:48:54.804Z,9.681196
2023-03-05T10:49:54.817Z,9.680969
2023-03-05T10:50:54.783Z,9.681129
2023-03-05T10:51:54.753Z,9.682177
2023-03-05T10:52:54.758Z,9.681510
2023-03-05T10:53:54.747Z,9.681606
2023-03-05T10:54:54.752Z,9.681270
2023-03-05T10:55:54.799Z,9.681317
2023-03-05T10:56:54.739Z,9.681077
2023-03-05T10:57:54.730Z,9.681230
2023-03-05T10:58:54.715Z,9.680770
2023-03-05T10:59:54.724Z,9.681384
2023-03-05T11:00:54.782Z,9.681017
2023-03-05T11:01:54.753Z,9.681127
2023-03-05T11:02:54.805Z,9.681084
2023-03-05T11:03:54.708Z,9.681184
2023-03-05T11:04:54.752Z,9.681030
2023-03-05T11:05:54.678Z,9.681500
2023-03-05T11:06:54.668Z,9.681067
2023-03-05T11:07:54.659Z,9.680577
2023-03-05T11:08:54.660Z,9.680960
2023-03-05T11:09:54.648Z,9.680619
2023-03-05T11:10:54.657Z,9.680458
2023-03-05T11:11:54.653Z,9.680453
2023-03-05T11:12:54.653Z,9.680498
2023-03-05T11:13:54.624Z,9.680785
2023-03-05T11:14:54.620Z,9.680942
2023-03-05T11:15:54.636Z,9.681213
2023-03-05T11:16:54.619Z,9.681358
2023-03-05T11:17:54.596Z,9.680853
2023-03-05T11:18:54.599Z,9.680902
2023-03-05T11:19:54.581Z,9.680572
2023-03-05T11:20:54.593Z,9.680954
2023-03-05T11:21:54.604Z,9.680328
2023-03-05T11:22:54.572Z,9.680419
2023-03-05T11:23:54.560Z,9.680354
2023-03-05T11:24:54.557Z,9.679968
2023-03-05T11:25:54.548Z,9.679730
2023-03-05T11:26:54.541Z,9.680619
2023-03-05T11:27:54.926Z,9.680825
2023-03-05T11:28:54.537Z,9.680942
2023-03-05T11:29:54.525Z,9.680794
2023-03-05T11:30:54.556Z,9.681172
2023-03-05T11:31:54.529Z,9.680956
2023-03-05T11:32:54.513Z,9.680949
2023-03-05T11:33:54.520Z,9.681196
2023-03-05T11:34:54.497Z,9.681589
2023-03-05T11:35:54.495Z,9.680876
2023-03-05T11:36:54.499Z,9.680539
2023-03-05T11:37:54.524Z,9.680630
2023-03-05T11:38:54.488Z,9.680996
2023-03-05T11:39:54.504Z,9.681338
2023-03-05T11:40:54.467Z,9.681244
2023-03-05T11:41:54.498Z,9.681057
2023-03-05T11:42:54.473Z,9.681161
2023-03-05T11:43:54.452Z,9.681299
2023-03-05T11:44:54.459Z,9.681092